sensor_id;sensor_type;location;lat;lon;timestamp;P1;durP1;ratioP1;P2;durP2;ratioP2
5967;SDS011;3010;51.028;4.170;2022-10-26T00:00:39;7.73;;;4.90;;
5967;SDS011;3010;51.028;4.170;2022-10-26T00:03:06;8.67;;;5.33;;
5967;SDS011;3010;51.028;4.170;2022-10-26T00:05:33;8.67;;;5.77;;
5967;SDS011;3010;51.028;4.170;2022-10-26T00:08:00;8.50;;;5.07;;
5967;SDS011;3010;51.028;4.170;2022-10-26T00:10:26;9.23;;;5.13;;
5967;SDS011;3010;51.028;4.170;2022-10-26T00:12:52;5.73;;;4.57;;
5967;SDS011;3010;51.028;4.170;2022-10-26T00:15:19;5.97;;;5.13;;
5967;SDS011;3010;51.028;4.170;2022-10-26T00:17:46;5.17;;;4.50;;
5967;SDS011;3010;51.028;4.170;2022-10-26T00:20:12;6.93;;;4.60;;
5967;SDS011;3010;51.028;4.170;2022-10-26T00:22:39;5.33;;;4.10;;
5967;SDS011;3010;51.028;4.170;2022-10-26T00:25:05;8.57;;;4.50;;
5967;SDS011;3010;51.028;4.170;2022-10-26T00:27:32;5.30;;;4.47;;
5967;SDS011;3010;51.028;4.170;2022-10-26T00:30:03;5.30;;;4.40;;
5967;SDS011;3010;51.028;4.170;2022-10-26T00:32:28;8.63;;;4.50;;
5967;SDS011;3010;51.028;4.170;2022-10-26T00:34:54;4.60;;;4.30;;
5967;SDS011;3010;51.028;4.170;2022-10-26T00:37:21;5.37;;;4.43;;
5967;SDS011;3010;51.028;4.170;2022-10-26T00:39:48;8.73;;;4.97;;
5967;SDS011;3010;51.028;4.170;2022-10-26T00:42:17;9.07;;;5.20;;
5967;SDS011;3010;51.028;4.170;2022-10-26T00:47:13;7.27;;;4.93;;
5967;SDS011;3010;51.028;4.170;2022-10-26T00:49:48;7.87;;;3.97;;
5967;SDS011;3010;51.028;4.170;2022-10-26T00:52:15;11.83;;;4.90;;
5967;SDS011;3010;51.028;4.170;2022-10-26T00:54:42;6.50;;;4.40;;
5967;SDS011;3010;51.028;4.170;2022-10-26T00:57:09;6.40;;;4.03;;
5967;SDS011;3010;51.028;4.170;2022-10-26T00:59:35;4.70;;;3.93;;
5967;SDS011;3010;51.028;4.170;2022-10-26T01:02:01;6.73;;;4.50;;
5967;SDS011;3010;51.028;4.170;2022-10-26T01:04:31;6.33;;;3.73;;
5967;SDS011;3010;51.028;4.170;2022-10-26T01:06:57;4.97;;;4.00;;
5967;SDS011;3010;51.028;4.170;2022-10-26T01:09:24;5.57;;;3.93;;
5967;SDS011;3010;51.028;4.170;2022-10-26T01:11:50;6.63;;;4.00;;
5967;SDS011;3010;51.028;4.170;2022-10-26T01:14:17;8.87;;;4.03;;
5967;SDS011;3010;51.028;4.170;2022-10-26T01:16:54;5.37;;;3.90;;
5967;SDS011;3010;51.028;4.170;2022-10-26T01:21:56;13.60;;;4.47;;
5967;SDS011;3010;51.028;4.170;2022-10-26T01:27:12;7.37;;;4.03;;
5967;SDS011;3010;51.028;4.170;2022-10-26T01:32:26;7.17;;;4.00;;
5967;SDS011;3010;51.028;4.170;2022-10-26T01:37:35;5.53;;;3.77;;
5967;SDS011;3010;51.028;4.170;2022-10-26T01:40:13;7.67;;;3.60;;
5967;SDS011;3010;51.028;4.170;2022-10-26T01:42:52;11.80;;;4.13;;
5967;SDS011;3010;51.028;4.170;2022-10-26T01:45:18;7.67;;;4.40;;
5967;SDS011;3010;51.028;4.170;2022-10-26T01:47:44;4.17;;;3.77;;
5967;SDS011;3010;51.028;4.170;2022-10-26T01:50:11;5.93;;;3.90;;
5967;SDS011;3010;51.028;4.170;2022-10-26T01:52:38;5.10;;;3.77;;
5967;SDS011;3010;51.028;4.170;2022-10-26T01:55:06;6.67;;;3.97;;
5967;SDS011;3010;51.028;4.170;2022-10-26T01:57:34;6.77;;;3.67;;
5967;SDS011;3010;51.028;4.170;2022-10-26T02:15:55;4.50;;;3.20;;
5967;SDS011;3010;51.028;4.170;2022-10-26T02:18:24;4.10;;;3.63;;
5967;SDS011;3010;51.028;4.170;2022-10-26T02:21:00;5.63;;;3.47;;
5967;SDS011;3010;51.028;4.170;2022-10-26T02:23:24;3.93;;;3.50;;
5967;SDS011;3010;51.028;4.170;2022-10-26T02:25:54;3.70;;;3.33;;
5967;SDS011;3010;51.028;4.170;2022-10-26T02:28:18;5.53;;;3.13;;
5967;SDS011;3010;51.028;4.170;2022-10-26T02:30:45;7.63;;;3.67;;
5967;SDS011;3010;51.028;4.170;2022-10-26T02:33:11;4.97;;;3.47;;
5967;SDS011;3010;51.028;4.170;2022-10-26T02:35:37;4.33;;;3.33;;
5967;SDS011;3010;51.028;4.170;2022-10-26T02:38:05;3.73;;;3.33;;
5967;SDS011;3010;51.028;4.170;2022-10-26T02:40:30;6.40;;;3.40;;
5967;SDS011;3010;51.028;4.170;2022-10-26T02:42:58;4.93;;;3.30;;
5967;SDS011;3010;51.028;4.170;2022-10-26T02:45:25;4.83;;;3.60;;
5967;SDS011;3010;51.028;4.170;2022-10-26T02:47:53;5.80;;;3.83;;
5967;SDS011;3010;51.028;4.170;2022-10-26T02:50:25;7.10;;;3.50;;
5967;SDS011;3010;51.028;4.170;2022-10-26T02:52:58;5.90;;;3.57;;
5967;SDS011;3010;51.028;4.170;2022-10-26T02:55:26;3.40;;;3.20;;
5967;SDS011;3010;51.028;4.170;2022-10-26T02:57:52;4.73;;;3.53;;
5967;SDS011;3010;51.028;4.170;2022-10-26T03:00:17;3.77;;;3.17;;
5967;SDS011;3010;51.028;4.170;2022-10-26T03:02:45;4.70;;;3.57;;
5967;SDS011;3010;51.028;4.170;2022-10-26T03:05:13;5.50;;;3.47;;
5967;SDS011;3010;51.028;4.170;2022-10-26T03:07:50;6.10;;;3.80;;
5967;SDS011;3010;51.028;4.170;2022-10-26T03:10:17;4.47;;;3.43;;
5967;SDS011;3010;51.028;4.170;2022-10-26T03:12:43;5.77;;;3.23;;
5967;SDS011;3010;51.028;4.170;2022-10-26T03:15:10;3.93;;;3.40;;
5967;SDS011;3010;51.028;4.170;2022-10-26T03:17:36;5.80;;;3.70;;
5967;SDS011;3010;51.028;4.170;2022-10-26T03:20:03;5.37;;;3.10;;
5967;SDS011;3010;51.028;4.170;2022-10-26T03:22:30;6.20;;;3.63;;
5967;SDS011;3010;51.028;4.170;2022-10-26T03:24:56;3.50;;;3.20;;
5967;SDS011;3010;51.028;4.170;2022-10-26T03:27:23;4.63;;;3.50;;
5967;SDS011;3010;51.028;4.170;2022-10-26T03:29:49;9.63;;;3.87;;
5967;SDS011;3010;51.028;4.170;2022-10-26T03:32:16;4.00;;;3.43;;
5967;SDS011;3010;51.028;4.170;2022-10-26T03:34:43;3.70;;;3.37;;
5967;SDS011;3010;51.028;4.170;2022-10-26T03:37:09;8.33;;;3.73;;
5967;SDS011;3010;51.028;4.170;2022-10-26T03:39:36;5.97;;;3.17;;
5967;SDS011;3010;51.028;4.170;2022-10-26T03:42:02;5.20;;;3.43;;
5967;SDS011;3010;51.028;4.170;2022-10-26T03:44:29;4.93;;;3.70;;
5967;SDS011;3010;51.028;4.170;2022-10-26T03:46:56;3.90;;;3.10;;
5967;SDS011;3010;51.028;4.170;2022-10-26T03:49:22;5.37;;;3.40;;
5967;SDS011;3010;51.028;4.170;2022-10-26T03:51:49;4.77;;;3.53;;
5967;SDS011;3010;51.028;4.170;2022-10-26T03:54:15;5.83;;;3.50;;
5967;SDS011;3010;51.028;4.170;2022-10-26T03:56:42;5.33;;;3.60;;
5967;SDS011;3010;51.028;4.170;2022-10-26T03:59:08;4.30;;;3.27;;
5967;SDS011;3010;51.028;4.170;2022-10-26T04:01:35;5.93;;;3.73;;
5967;SDS011;3010;51.028;4.170;2022-10-26T04:04:02;10.20;;;3.80;;
5967;SDS011;3010;51.028;4.170;2022-10-26T04:06:28;12.67;;;3.97;;
5967;SDS011;3010;51.028;4.170;2022-10-26T04:08:55;10.87;;;4.00;;
5967;SDS011;3010;51.028;4.170;2022-10-26T04:11:24;8.07;;;3.53;;
5967;SDS011;3010;51.028;4.170;2022-10-26T04:13:51;7.40;;;3.70;;
5967;SDS011;3010;51.028;4.170;2022-10-26T04:16:17;4.13;;;3.57;;
5967;SDS011;3010;51.028;4.170;2022-10-26T04:18:44;5.20;;;3.83;;
5967;SDS011;3010;51.028;4.170;2022-10-26T04:21:10;4.03;;;3.63;;
5967;SDS011;3010;51.028;4.170;2022-10-26T04:23:37;4.97;;;3.67;;
5967;SDS011;3010;51.028;4.170;2022-10-26T04:26:04;6.33;;;3.07;;
5967;SDS011;3010;51.028;4.170;2022-10-26T04:28:30;7.00;;;3.43;;
5967;SDS011;3010;51.028;4.170;2022-10-26T04:30:57;8.33;;;4.00;;
5967;SDS011;3010;51.028;4.170;2022-10-26T04:33:23;7.17;;;3.93;;
5967;SDS011;3010;51.028;4.170;2022-10-26T04:35:50;8.60;;;3.70;;
5967;SDS011;3010;51.028;4.170;2022-10-26T04:38:16;6.37;;;3.70;;
5967;SDS011;3010;51.028;4.170;2022-10-26T04:40:43;4.20;;;3.80;;
5967;SDS011;3010;51.028;4.170;2022-10-26T04:43:10;5.67;;;3.13;;
5967;SDS011;3010;51.028;4.170;2022-10-26T04:45:36;6.63;;;4.13;;
5967;SDS011;3010;51.028;4.170;2022-10-26T04:48:04;7.87;;;3.73;;
5967;SDS011;3010;51.028;4.170;2022-10-26T04:50:29;7.90;;;3.60;;
5967;SDS011;3010;51.028;4.170;2022-10-26T04:52:56;10.73;;;4.00;;
5967;SDS011;3010;51.028;4.170;2022-10-26T04:55:23;5.17;;;3.67;;
5967;SDS011;3010;51.028;4.170;2022-10-26T04:57:49;8.63;;;4.50;;
5967;SDS011;3010;51.028;4.170;2022-10-26T05:00:16;7.17;;;3.30;;
5967;SDS011;3010;51.028;4.170;2022-10-26T05:02:42;3.93;;;3.30;;
5967;SDS011;3010;51.028;4.170;2022-10-26T05:05:09;7.23;;;2.97;;
5967;SDS011;3010;51.028;4.170;2022-10-26T05:07:36;6.07;;;3.60;;
5967;SDS011;3010;51.028;4.170;2022-10-26T05:10:02;11.57;;;3.40;;
5967;SDS011;3010;51.028;4.170;2022-10-26T05:12:29;11.97;;;3.33;;
5967;SDS011;3010;51.028;4.170;2022-10-26T05:14:55;7.03;;;3.10;;
5967;SDS011;3010;51.028;4.170;2022-10-26T05:17:22;3.90;;;3.10;;
5967;SDS011;3010;51.028;4.170;2022-10-26T05:19:48;5.80;;;3.07;;
5967;SDS011;3010;51.028;4.170;2022-10-26T05:22:15;5.33;;;2.97;;
5967;SDS011;3010;51.028;4.170;2022-10-26T05:24:42;6.10;;;3.07;;
5967;SDS011;3010;51.028;4.170;2022-10-26T05:27:08;4.27;;;2.93;;
5967;SDS011;3010;51.028;4.170;2022-10-26T05:29:35;4.37;;;3.27;;
5967;SDS011;3010;51.028;4.170;2022-10-26T05:32:01;3.97;;;2.87;;
5967;SDS011;3010;51.028;4.170;2022-10-26T05:34:28;4.47;;;3.20;;
5967;SDS011;3010;51.028;4.170;2022-10-26T05:36:55;3.20;;;2.53;;
5967;SDS011;3010;51.028;4.170;2022-10-26T05:39:21;7.10;;;3.23;;
5967;SDS011;3010;51.028;4.170;2022-10-26T05:41:48;3.60;;;2.77;;
5967;SDS011;3010;51.028;4.170;2022-10-26T05:44:14;3.73;;;2.43;;
5967;SDS011;3010;51.028;4.170;2022-10-26T05:46:41;2.70;;;2.50;;
5967;SDS011;3010;51.028;4.170;2022-10-26T05:49:08;4.80;;;2.70;;
5967;SDS011;3010;51.028;4.170;2022-10-26T05:51:34;3.17;;;2.57;;
5967;SDS011;3010;51.028;4.170;2022-10-26T05:54:01;4.80;;;2.90;;
5967;SDS011;3010;51.028;4.170;2022-10-26T05:56:34;2.90;;;2.60;;
5967;SDS011;3010;51.028;4.170;2022-10-26T05:59:00;3.13;;;2.80;;
5967;SDS011;3010;51.028;4.170;2022-10-26T06:04:37;4.10;;;2.70;;
5967;SDS011;3010;51.028;4.170;2022-10-26T06:07:03;3.10;;;2.70;;
5967;SDS011;3010;51.028;4.170;2022-10-26T06:09:29;5.50;;;2.70;;
5967;SDS011;3010;51.028;4.170;2022-10-26T06:11:55;6.93;;;3.23;;
5967;SDS011;3010;51.028;4.170;2022-10-26T06:14:22;3.33;;;2.83;;
5967;SDS011;3010;51.028;4.170;2022-10-26T06:22:41;5.20;;;2.90;;
5967;SDS011;3010;51.028;4.170;2022-10-26T06:24:38;3.50;;;2.50;;
5967;SDS011;3010;51.028;4.170;2022-10-26T06:32:09;6.53;;;3.30;;
5967;SDS011;3010;51.028;4.170;2022-10-26T06:34:36;4.80;;;3.60;;
5967;SDS011;3010;51.028;4.170;2022-10-26T06:37:02;7.70;;;3.10;;
5967;SDS011;3010;51.028;4.170;2022-10-26T06:39:30;4.53;;;3.20;;
5967;SDS011;3010;51.028;4.170;2022-10-26T06:41:56;4.63;;;3.00;;
5967;SDS011;3010;51.028;4.170;2022-10-26T06:44:22;5.90;;;2.60;;
5967;SDS011;3010;51.028;4.170;2022-10-26T06:50:27;5.67;;;3.50;;
5967;SDS011;3010;51.028;4.170;2022-10-26T06:54:49;3.80;;;3.50;;
5967;SDS011;3010;51.028;4.170;2022-10-26T06:57:15;6.22;;;3.10;;
5967;SDS011;3010;51.028;4.170;2022-10-26T06:59:51;7.17;;;3.57;;
5967;SDS011;3010;51.028;4.170;2022-10-26T07:02:16;6.63;;;3.23;;
5967;SDS011;3010;51.028;4.170;2022-10-26T07:04:43;7.37;;;3.23;;
5967;SDS011;3010;51.028;4.170;2022-10-26T07:07:13;4.80;;;3.17;;
5967;SDS011;3010;51.028;4.170;2022-10-26T07:09:48;5.63;;;3.33;;
5967;SDS011;3010;51.028;4.170;2022-10-26T07:12:14;3.57;;;3.20;;
5967;SDS011;3010;51.028;4.170;2022-10-26T07:14:41;5.03;;;3.63;;
5967;SDS011;3010;51.028;4.170;2022-10-26T07:17:08;4.30;;;3.40;;
5967;SDS011;3010;51.028;4.170;2022-10-26T07:19:34;6.93;;;3.72;;
5967;SDS011;3010;51.028;4.170;2022-10-26T07:22:01;4.03;;;3.33;;
5967;SDS011;3010;51.028;4.170;2022-10-26T07:24:27;5.33;;;3.70;;
5967;SDS011;3010;51.028;4.170;2022-10-26T07:26:54;3.73;;;3.17;;
5967;SDS011;3010;51.028;4.170;2022-10-26T07:29:21;5.23;;;3.13;;
5967;SDS011;3010;51.028;4.170;2022-10-26T07:31:47;4.10;;;3.07;;
5967;SDS011;3010;51.028;4.170;2022-10-26T07:34:14;3.80;;;3.47;;
5967;SDS011;3010;51.028;4.170;2022-10-26T07:36:40;6.43;;;3.63;;
5967;SDS011;3010;51.028;4.170;2022-10-26T07:39:07;4.43;;;3.20;;
5967;SDS011;3010;51.028;4.170;2022-10-26T07:41:33;5.23;;;3.03;;
5967;SDS011;3010;51.028;4.170;2022-10-26T07:44:00;5.17;;;3.23;;
5967;SDS011;3010;51.028;4.170;2022-10-26T07:46:26;4.13;;;3.23;;
5967;SDS011;3010;51.028;4.170;2022-10-26T07:48:53;3.60;;;3.30;;
5967;SDS011;3010;51.028;4.170;2022-10-26T07:51:20;5.60;;;3.40;;
5967;SDS011;3010;51.028;4.170;2022-10-26T07:53:46;4.07;;;3.30;;
5967;SDS011;3010;51.028;4.170;2022-10-26T07:56:13;3.63;;;3.33;;
5967;SDS011;3010;51.028;4.170;2022-10-26T07:58:39;3.20;;;2.90;;
5967;SDS011;3010;51.028;4.170;2022-10-26T08:01:07;3.33;;;3.03;;
5967;SDS011;3010;51.028;4.170;2022-10-26T08:03:33;3.77;;;3.13;;
5967;SDS011;3010;51.028;4.170;2022-10-26T08:05:59;6.27;;;3.30;;
5967;SDS011;3010;51.028;4.170;2022-10-26T08:08:26;4.83;;;3.30;;
5967;SDS011;3010;51.028;4.170;2022-10-26T08:10:52;5.23;;;3.20;;
5967;SDS011;3010;51.028;4.170;2022-10-26T08:13:19;4.03;;;3.63;;
5967;SDS011;3010;51.028;4.170;2022-10-26T08:15:46;7.90;;;3.40;;
5967;SDS011;3010;51.028;4.170;2022-10-26T08:18:12;5.00;;;3.10;;
5967;SDS011;3010;51.028;4.170;2022-10-26T08:20:39;6.07;;;3.23;;
5967;SDS011;3010;51.028;4.170;2022-10-26T08:23:05;5.40;;;3.50;;
5967;SDS011;3010;51.028;4.170;2022-10-26T08:25:32;7.40;;;3.07;;
5967;SDS011;3010;51.028;4.170;2022-10-26T08:28:02;4.63;;;3.27;;
5967;SDS011;3010;51.028;4.170;2022-10-26T08:30:28;3.90;;;3.23;;
5967;SDS011;3010;51.028;4.170;2022-10-26T08:32:58;6.53;;;3.03;;
5967;SDS011;3010;51.028;4.170;2022-10-26T08:35:23;7.47;;;3.53;;
5967;SDS011;3010;51.028;4.170;2022-10-26T08:37:51;4.27;;;2.90;;
5967;SDS011;3010;51.028;4.170;2022-10-26T08:40:17;5.20;;;3.50;;
5967;SDS011;3010;51.028;4.170;2022-10-26T08:42:44;4.20;;;2.87;;
5967;SDS011;3010;51.028;4.170;2022-10-26T08:45:21;5.03;;;2.77;;
5967;SDS011;3010;51.028;4.170;2022-10-26T08:47:46;4.10;;;3.00;;
5967;SDS011;3010;51.028;4.170;2022-10-26T08:50:15;9.02;;;3.00;;
5967;SDS011;3010;51.028;4.170;2022-10-26T08:52:45;5.47;;;2.63;;
5967;SDS011;3010;51.028;4.170;2022-10-26T08:55:13;3.40;;;2.80;;
5967;SDS011;3010;51.028;4.170;2022-10-26T08:57:39;3.40;;;3.10;;
5967;SDS011;3010;51.028;4.170;2022-10-26T09:00:06;3.53;;;3.07;;
5967;SDS011;3010;51.028;4.170;2022-10-26T09:02:32;3.83;;;2.97;;
5967;SDS011;3010;51.028;4.170;2022-10-26T09:04:58;5.00;;;2.80;;
5967;SDS011;3010;51.028;4.170;2022-10-26T09:07:36;4.50;;;2.87;;
5967;SDS011;3010;51.028;4.170;2022-10-26T09:17:56;4.67;;;3.00;;
5967;SDS011;3010;51.028;4.170;2022-10-26T09:20:48;3.33;;;2.77;;
5967;SDS011;3010;51.028;4.170;2022-10-26T09:26:27;3.57;;;3.00;;
5967;SDS011;3010;51.028;4.170;2022-10-26T09:28:52;4.30;;;3.33;;
5967;SDS011;3010;51.028;4.170;2022-10-26T09:31:19;3.90;;;2.47;;
5967;SDS011;3010;51.028;4.170;2022-10-26T09:33:45;10.60;;;3.27;;
5967;SDS011;3010;51.028;4.170;2022-10-26T09:36:13;4.07;;;3.07;;
5967;SDS011;3010;51.028;4.170;2022-10-26T09:38:39;7.20;;;2.90;;
5967;SDS011;3010;51.028;4.170;2022-10-26T09:41:21;3.50;;;3.07;;
5967;SDS011;3010;51.028;4.170;2022-10-26T09:46:25;3.53;;;3.10;;
5967;SDS011;3010;51.028;4.170;2022-10-26T09:48:58;3.10;;;2.80;;
5967;SDS011;3010;51.028;4.170;2022-10-26T09:51:24;7.83;;;2.50;;
5967;SDS011;3010;51.028;4.170;2022-10-26T09:53:52;3.30;;;2.60;;
5967;SDS011;3010;51.028;4.170;2022-10-26T09:56:18;6.00;;;2.63;;
5967;SDS011;3010;51.028;4.170;2022-10-26T09:58:54;5.97;;;2.50;;
5967;SDS011;3010;51.028;4.170;2022-10-26T10:04:18;3.30;;;2.40;;
5967;SDS011;3010;51.028;4.170;2022-10-26T10:06:43;2.10;;;2.03;;
5967;SDS011;3010;51.028;4.170;2022-10-26T10:09:13;3.27;;;2.40;;
5967;SDS011;3010;51.028;4.170;2022-10-26T10:11:43;2.40;;;2.20;;
5967;SDS011;3010;51.028;4.170;2022-10-26T10:14:12;5.97;;;2.37;;
5967;SDS011;3010;51.028;4.170;2022-10-26T10:16:35;3.30;;;2.30;;
5967;SDS011;3010;51.028;4.170;2022-10-26T10:19:01;2.67;;;2.20;;
5967;SDS011;3010;51.028;4.170;2022-10-26T10:21:43;6.07;;;2.53;;
5967;SDS011;3010;51.028;4.170;2022-10-26T10:24:20;4.53;;;2.43;;
5967;SDS011;3010;51.028;4.170;2022-10-26T10:26:44;3.87;;;2.60;;
5967;SDS011;3010;51.028;4.170;2022-10-26T10:29:08;4.10;;;2.20;;
5967;SDS011;3010;51.028;4.170;2022-10-26T10:31:30;2.55;;;2.22;;
5967;SDS011;3010;51.028;4.170;2022-10-26T10:33:56;2.50;;;2.27;;
5967;SDS011;3010;51.028;4.170;2022-10-26T10:36:23;3.73;;;2.00;;
5967;SDS011;3010;51.028;4.170;2022-10-26T10:38:49;3.07;;;2.40;;
5967;SDS011;3010;51.028;4.170;2022-10-26T10:43:43;2.13;;;1.93;;
5967;SDS011;3010;51.028;4.170;2022-10-26T10:46:09;3.00;;;2.10;;
5967;SDS011;3010;51.028;4.170;2022-10-26T10:48:35;3.90;;;2.23;;
5967;SDS011;3010;51.028;4.170;2022-10-26T10:51:03;4.27;;;2.07;;
5967;SDS011;3010;51.028;4.170;2022-10-26T10:56:17;2.58;;;2.37;;
5967;SDS011;3010;51.028;4.170;2022-10-26T11:01:20;2.10;;;2.00;;
5967;SDS011;3010;51.028;4.170;2022-10-26T11:06:37;2.00;;;1.90;;
5967;SDS011;3010;51.028;4.170;2022-10-26T11:09:06;5.53;;;2.10;;
5967;SDS011;3010;51.028;4.170;2022-10-26T11:11:38;4.23;;;2.00;;
5967;SDS011;3010;51.028;4.170;2022-10-26T11:14:05;4.67;;;2.10;;
5967;SDS011;3010;51.028;4.170;2022-10-26T11:16:32;4.17;;;2.27;;
5967;SDS011;3010;51.028;4.170;2022-10-26T11:19:05;4.90;;;2.47;;
5967;SDS011;3010;51.028;4.170;2022-10-26T11:21:30;7.63;;;2.30;;
5967;SDS011;3010;51.028;4.170;2022-10-26T11:24:03;3.37;;;2.20;;
5967;SDS011;3010;51.028;4.170;2022-10-26T11:26:34;4.50;;;2.30;;
5967;SDS011;3010;51.028;4.170;2022-10-26T11:29:09;8.07;;;1.93;;
5967;SDS011;3010;51.028;4.170;2022-10-26T11:31:43;2.10;;;1.90;;
5967;SDS011;3010;51.028;4.170;2022-10-26T11:34:09;2.47;;;2.37;;
5967;SDS011;3010;51.028;4.170;2022-10-26T11:36:34;2.67;;;2.00;;
5967;SDS011;3010;51.028;4.170;2022-10-26T11:39:04;3.30;;;2.10;;
5967;SDS011;3010;51.028;4.170;2022-10-26T11:44:10;3.90;;;1.90;;
5967;SDS011;3010;51.028;4.170;2022-10-26T11:46:47;2.00;;;1.83;;
5967;SDS011;3010;51.028;4.170;2022-10-26T11:49:14;5.50;;;2.10;;
5967;SDS011;3010;51.028;4.170;2022-10-26T11:51:41;5.70;;;1.90;;
5967;SDS011;3010;51.028;4.170;2022-10-26T11:54:08;3.43;;;2.10;;
5967;SDS011;3010;51.028;4.170;2022-10-26T11:56:34;3.53;;;1.70;;
5967;SDS011;3010;51.028;4.170;2022-10-26T11:58:59;3.90;;;1.73;;
5967;SDS011;3010;51.028;4.170;2022-10-26T12:01:26;4.43;;;1.90;;
5967;SDS011;3010;51.028;4.170;2022-10-26T12:03:52;3.93;;;2.07;;
5967;SDS011;3010;51.028;4.170;2022-10-26T12:06:20;2.50;;;2.03;;
5967;SDS011;3010;51.028;4.170;2022-10-26T12:08:46;3.17;;;1.90;;
5967;SDS011;3010;51.028;4.170;2022-10-26T12:11:35;6.30;;;2.27;;
5967;SDS011;3010;51.028;4.170;2022-10-26T12:17:08;3.07;;;1.83;;
5967;SDS011;3010;51.028;4.170;2022-10-26T12:19:35;2.83;;;1.80;;
5967;SDS011;3010;51.028;4.170;2022-10-26T12:22:01;4.05;;;1.75;;
5967;SDS011;3010;51.028;4.170;2022-10-26T12:24:29;4.47;;;1.77;;
5967;SDS011;3010;51.028;4.170;2022-10-26T12:26:55;4.20;;;1.87;;
5967;SDS011;3010;51.028;4.170;2022-10-26T12:31:53;2.83;;;1.73;;
5967;SDS011;3010;51.028;4.170;2022-10-26T12:44:39;3.63;;;1.57;;
5967;SDS011;3010;51.028;4.170;2022-10-26T12:47:08;2.07;;;1.87;;
5967;SDS011;3010;51.028;4.170;2022-10-26T12:52:29;4.27;;;1.83;;
5967;SDS011;3010;51.028;4.170;2022-10-26T12:55:08;2.80;;;1.57;;
5967;SDS011;3010;51.028;4.170;2022-10-26T13:00:12;2.60;;;1.50;;
5967;SDS011;3010;51.028;4.170;2022-10-26T13:08:05;2.20;;;1.67;;
5967;SDS011;3010;51.028;4.170;2022-10-26T13:10:27;4.40;;;1.60;;
5967;SDS011;3010;51.028;4.170;2022-10-26T13:12:55;4.03;;;1.70;;
5967;SDS011;3010;51.028;4.170;2022-10-26T13:15:39;2.57;;;1.50;;
5967;SDS011;3010;51.028;4.170;2022-10-26T13:18:14;2.40;;;2.07;;
5967;SDS011;3010;51.028;4.170;2022-10-26T13:23:36;2.40;;;1.60;;
5967;SDS011;3010;51.028;4.170;2022-10-26T13:26:05;2.37;;;1.50;;
5967;SDS011;3010;51.028;4.170;2022-10-26T13:34:13;2.93;;;1.40;;
5967;SDS011;3010;51.028;4.170;2022-10-26T13:36:52;3.80;;;1.23;;
5967;SDS011;3010;51.028;4.170;2022-10-26T13:39:29;2.17;;;1.47;;
5967;SDS011;3010;51.028;4.170;2022-10-26T13:41:55;5.37;;;1.90;;
5967;SDS011;3010;51.028;4.170;2022-10-26T13:44:24;2.43;;;1.50;;
5967;SDS011;3010;51.028;4.170;2022-10-26T13:47:01;3.60;;;1.57;;
5967;SDS011;3010;51.028;4.170;2022-10-26T13:49:29;4.33;;;1.93;;
5967;SDS011;3010;51.028;4.170;2022-10-26T13:51:57;4.03;;;1.50;;
5967;SDS011;3010;51.028;4.170;2022-10-26T13:54:31;2.33;;;1.30;;
5967;SDS011;3010;51.028;4.170;2022-10-26T13:57:00;3.50;;;1.80;;
5967;SDS011;3010;51.028;4.170;2022-10-26T13:59:27;3.63;;;1.73;;
5967;SDS011;3010;51.028;4.170;2022-10-26T14:04:58;4.97;;;1.63;;
5967;SDS011;3010;51.028;4.170;2022-10-26T14:07:34;2.50;;;1.50;;
5967;SDS011;3010;51.028;4.170;2022-10-26T14:09:59;4.03;;;1.83;;
5967;SDS011;3010;51.028;4.170;2022-10-26T14:12:26;3.65;;;1.58;;
5967;SDS011;3010;51.028;4.170;2022-10-26T14:14:58;5.60;;;1.60;;
5967;SDS011;3010;51.028;4.170;2022-10-26T14:17:23;2.60;;;1.27;;
5967;SDS011;3010;51.028;4.170;2022-10-26T14:19:49;1.90;;;1.43;;
5967;SDS011;3010;51.028;4.170;2022-10-26T14:22:17;3.80;;;1.50;;
5967;SDS011;3010;51.028;4.170;2022-10-26T14:24:48;3.67;;;1.57;;
5967;SDS011;3010;51.028;4.170;2022-10-26T14:27:18;4.33;;;1.47;;
5967;SDS011;3010;51.028;4.170;2022-10-26T14:29:46;4.67;;;1.57;;
5967;SDS011;3010;51.028;4.170;2022-10-26T14:32:26;4.82;;;1.80;;
5967;SDS011;3010;51.028;4.170;2022-10-26T14:34:52;2.73;;;1.40;;
5967;SDS011;3010;51.028;4.170;2022-10-26T14:37:23;4.70;;;1.60;;
5967;SDS011;3010;51.028;4.170;2022-10-26T14:39:50;2.57;;;1.53;;
5967;SDS011;3010;51.028;4.170;2022-10-26T14:42:30;2.80;;;1.50;;
5967;SDS011;3010;51.028;4.170;2022-10-26T14:44:56;5.07;;;1.90;;
5967;SDS011;3010;51.028;4.170;2022-10-26T14:47:23;3.63;;;1.80;;
5967;SDS011;3010;51.028;4.170;2022-10-26T14:49:49;4.23;;;1.40;;
5967;SDS011;3010;51.028;4.170;2022-10-26T14:52:19;3.80;;;1.43;;
5967;SDS011;3010;51.028;4.170;2022-10-26T14:54:42;4.07;;;1.90;;
5967;SDS011;3010;51.028;4.170;2022-10-26T15:00:00;1.83;;;1.43;;
5967;SDS011;3010;51.028;4.170;2022-10-26T15:02:26;5.00;;;1.77;;
5967;SDS011;3010;51.028;4.170;2022-10-26T15:04:58;2.43;;;1.40;;
5967;SDS011;3010;51.028;4.170;2022-10-26T15:07:22;2.77;;;1.07;;
5967;SDS011;3010;51.028;4.170;2022-10-26T15:09:49;4.60;;;1.67;;
5967;SDS011;3010;51.028;4.170;2022-10-26T15:12:24;3.57;;;1.83;;
5967;SDS011;3010;51.028;4.170;2022-10-26T15:14:45;5.80;;;1.53;;
5967;SDS011;3010;51.028;4.170;2022-10-26T15:17:19;6.63;;;1.83;;
5967;SDS011;3010;51.028;4.170;2022-10-26T15:19:47;3.10;;;1.60;;
5967;SDS011;3010;51.028;4.170;2022-10-26T15:22:21;6.37;;;1.80;;
5967;SDS011;3010;51.028;4.170;2022-10-26T15:24:49;3.73;;;1.70;;
5967;SDS011;3010;51.028;4.170;2022-10-26T15:27:20;5.13;;;1.40;;
5967;SDS011;3010;51.028;4.170;2022-10-26T15:29:48;5.83;;;1.53;;
5967;SDS011;3010;51.028;4.170;2022-10-26T15:37:39;6.47;;;1.90;;
5967;SDS011;3010;51.028;4.170;2022-10-26T15:40:06;5.40;;;1.93;;
5967;SDS011;3010;51.028;4.170;2022-10-26T15:42:36;5.10;;;1.87;;
5967;SDS011;3010;51.028;4.170;2022-10-26T15:45:12;7.40;;;1.80;;
5967;SDS011;3010;51.028;4.170;2022-10-26T15:47:32;5.40;;;1.70;;
5967;SDS011;3010;51.028;4.170;2022-10-26T15:49:58;4.03;;;2.13;;
5967;SDS011;3010;51.028;4.170;2022-10-26T15:52:24;4.07;;;1.90;;
5967;SDS011;3010;51.028;4.170;2022-10-26T15:54:51;5.77;;;1.63;;
5967;SDS011;3010;51.028;4.170;2022-10-26T15:57:17;4.00;;;1.70;;
5967;SDS011;3010;51.028;4.170;2022-10-26T15:59:44;2.63;;;1.63;;
5967;SDS011;3010;51.028;4.170;2022-10-26T16:02:14;2.30;;;1.40;;
5967;SDS011;3010;51.028;4.170;2022-10-26T16:04:40;4.50;;;1.77;;
5967;SDS011;3010;51.028;4.170;2022-10-26T16:07:12;3.30;;;1.67;;
5967;SDS011;3010;51.028;4.170;2022-10-26T16:09:39;3.97;;;1.90;;
5967;SDS011;3010;51.028;4.170;2022-10-26T16:12:07;3.93;;;1.77;;
5967;SDS011;3010;51.028;4.170;2022-10-26T16:14:32;4.40;;;1.67;;
5967;SDS011;3010;51.028;4.170;2022-10-26T16:16:58;2.43;;;1.80;;
5967;SDS011;3010;51.028;4.170;2022-10-26T16:19:26;3.60;;;1.93;;
5967;SDS011;3010;51.028;4.170;2022-10-26T16:21:53;5.13;;;1.90;;
5967;SDS011;3010;51.028;4.170;2022-10-26T16:24:19;2.30;;;1.63;;
5967;SDS011;3010;51.028;4.170;2022-10-26T16:26:46;4.10;;;1.40;;
5967;SDS011;3010;51.028;4.170;2022-10-26T16:29:13;4.20;;;1.80;;
5967;SDS011;3010;51.028;4.170;2022-10-26T16:31:39;6.23;;;2.10;;
5967;SDS011;3010;51.028;4.170;2022-10-26T16:34:06;2.53;;;1.43;;
5967;SDS011;3010;51.028;4.170;2022-10-26T16:36:32;6.28;;;2.25;;
5967;SDS011;3010;51.028;4.170;2022-10-26T16:38:59;4.23;;;1.97;;
5967;SDS011;3010;51.028;4.170;2022-10-26T16:41:26;3.03;;;1.63;;
5967;SDS011;3010;51.028;4.170;2022-10-26T16:43:52;6.13;;;2.03;;
5967;SDS011;3010;51.028;4.170;2022-10-26T16:46:19;4.63;;;2.10;;
5967;SDS011;3010;51.028;4.170;2022-10-26T16:48:46;2.40;;;1.77;;
5967;SDS011;3010;51.028;4.170;2022-10-26T16:51:16;5.33;;;2.10;;
5967;SDS011;3010;51.028;4.170;2022-10-26T16:53:48;5.70;;;1.97;;
5967;SDS011;3010;51.028;4.170;2022-10-26T16:56:14;8.10;;;2.53;;
5967;SDS011;3010;51.028;4.170;2022-10-26T16:58:40;4.80;;;2.03;;
5967;SDS011;3010;51.028;4.170;2022-10-26T17:01:07;5.70;;;2.33;;
5967;SDS011;3010;51.028;4.170;2022-10-26T17:03:33;3.53;;;2.30;;
5967;SDS011;3010;51.028;4.170;2022-10-26T17:06:01;7.63;;;2.47;;
5967;SDS011;3010;51.028;4.170;2022-10-26T17:08:27;3.27;;;2.00;;
5967;SDS011;3010;51.028;4.170;2022-10-26T17:10:57;3.73;;;1.80;;
5967;SDS011;3010;51.028;4.170;2022-10-26T17:13:21;8.60;;;2.30;;
5967;SDS011;3010;51.028;4.170;2022-10-26T17:15:47;5.97;;;2.23;;
5967;SDS011;3010;51.028;4.170;2022-10-26T17:18:14;6.47;;;2.30;;
5967;SDS011;3010;51.028;4.170;2022-10-26T17:20:47;3.10;;;1.97;;
5967;SDS011;3010;51.028;4.170;2022-10-26T17:23:07;4.27;;;1.90;;